createdAt,value
2019-03-20T00:01:50.093Z,6.17
2019-03-20T00:04:49.233Z,6.11
2019-03-20T00:07:31.873Z,6.07
2019-03-20T00:10:22.078Z,6.03
2019-03-20T00:13:12.070Z,5.99
2019-03-20T00:16:02.257Z,5.94
2019-03-20T00:18:51.937Z,5.93
2019-03-20T00:21:42.094Z,5.89
2019-03-20T00:24:32.194Z,5.91
2019-03-20T00:27:23.081Z,5.90
2019-03-20T00:30:13.734Z,5.91
2019-03-20T00:33:03.838Z,5.90
2019-03-20T00:35:54.027Z,5.89
2019-03-20T00:38:43.884Z,5.91
2019-03-20T00:41:33.825Z,5.91
2019-03-20T00:44:23.909Z,5.86
2019-03-20T00:47:13.617Z,5.84
2019-03-20T00:50:04.279Z,5.83
2019-03-20T00:52:53.878Z,5.79
2019-03-20T00:55:44.086Z,5.76
2019-03-20T00:58:34.273Z,5.73
2019-03-20T01:01:24.310Z,5.67
2019-03-20T01:04:14.397Z,5.62
2019-03-20T01:07:04.482Z,5.59
2019-03-20T01:09:54.206Z,5.53
2019-03-20T01:12:44.079Z,5.47
2019-03-20T01:15:33.849Z,5.40
2019-03-20T01:18:23.747Z,5.35
2019-03-20T01:21:14.115Z,5.28
2019-03-20T01:24:04.803Z,5.24
2019-03-20T01:26:54.705Z,5.19
2019-03-20T01:29:44.203Z,5.12
2019-03-20T01:32:33.641Z,5.05
2019-03-20T01:35:24.267Z,4.98
2019-03-20T01:38:14.225Z,4.94
2019-03-20T01:41:04.356Z,4.88
2019-03-20T01:43:54.092Z,4.83
2019-03-20T01:46:44.930Z,4.76
2019-03-20T01:49:36.186Z,4.73
2019-03-20T01:52:26.703Z,4.68
2019-03-20T01:55:17.056Z,4.66
2019-03-20T01:58:06.711Z,4.63
2019-03-20T02:00:56.799Z,4.60
2019-03-20T02:03:46.921Z,4.58
2019-03-20T02:06:37.055Z,4.52
2019-03-20T02:09:27.161Z,4.49
2019-03-20T02:12:17.370Z,4.47
2019-03-20T02:15:11.751Z,4.42
2019-03-20T02:18:02.744Z,4.37
2019-03-20T02:20:52.522Z,4.33
2019-03-20T02:23:42.255Z,4.30
2019-03-20T02:26:32.351Z,4.26
2019-03-20T02:29:22.005Z,4.21
2019-03-20T02:32:11.473Z,4.19
2019-03-20T02:35:01.946Z,4.16
2019-03-20T02:37:52.724Z,4.11
2019-03-20T02:40:42.481Z,4.08
2019-03-20T02:43:32.579Z,4.04
2019-03-20T02:46:22.448Z,4.01
2019-03-20T02:49:12.050Z,3.97
2019-03-20T02:52:04.047Z,3.95
2019-03-20T02:54:53.350Z,3.92
2019-03-20T02:57:43.358Z,3.89
2019-03-20T03:00:33.111Z,3.87
2019-03-20T03:03:23.165Z,3.80
2019-03-20T03:06:12.968Z,3.79
2019-03-20T03:09:02.934Z,3.81
2019-03-20T03:11:53.145Z,3.80
2019-03-20T03:14:43.340Z,3.81
2019-03-20T03:17:33.426Z,3.74
2019-03-20T03:20:22.916Z,3.72
2019-03-20T03:23:12.983Z,3.68
2019-03-20T03:26:02.969Z,3.69
2019-03-20T03:28:52.823Z,3.66
2019-03-20T03:31:42.858Z,3.61
2019-03-20T03:34:32.660Z,3.58
2019-03-20T03:37:22.227Z,3.57
2019-03-20T03:40:13.214Z,3.54
2019-03-20T03:43:03.165Z,3.54
2019-03-20T03:45:52.951Z,3.51
2019-03-20T03:48:42.996Z,3.48
2019-03-20T03:51:32.836Z,3.44
2019-03-20T03:54:22.999Z,3.42
2019-03-20T03:57:13.467Z,3.42
2019-03-20T04:00:04.481Z,3.40
2019-03-20T04:02:54.222Z,3.39
2019-03-20T04:05:44.170Z,3.35
2019-03-20T04:08:34.118Z,3.32
2019-03-20T04:11:23.878Z,3.28
2019-03-20T04:14:14.563Z,3.27
2019-03-20T04:17:20.492Z,3.25
2019-03-20T04:20:12.183Z,3.23
2019-03-20T04:23:01.839Z,3.19
2019-03-20T04:25:52.121Z,3.17
2019-03-20T04:28:42.393Z,3.15
2019-03-20T04:31:32.588Z,3.15
2019-03-20T04:34:22.634Z,3.17
2019-03-20T04:37:12.745Z,3.15
2019-03-20T04:40:02.664Z,3.12
2019-03-20T04:42:52.854Z,3.11
2019-03-20T04:45:42.891Z,3.10
2019-03-20T04:48:32.598Z,3.08
2019-03-20T04:51:22.643Z,3.05
2019-03-20T04:54:12.901Z,3.03
2019-03-20T04:57:02.672Z,3.08
2019-03-20T04:59:52.610Z,3.04
2019-03-20T05:02:42.314Z,3.04
2019-03-20T05:05:32.291Z,2.99
2019-03-20T05:08:22.102Z,2.97
2019-03-20T05:11:12.405Z,2.95
2019-03-20T05:14:01.922Z,2.94
2019-03-20T05:16:51.526Z,2.93
2019-03-20T05:19:41.930Z,2.95
2019-03-20T05:22:31.758Z,2.98
2019-03-20T05:25:21.711Z,3.01
2019-03-20T05:28:11.841Z,3.00
2019-03-20T05:31:01.849Z,3.01
2019-03-20T05:33:51.395Z,3.02
2019-03-20T05:36:42.332Z,3.03
2019-03-20T05:39:32.489Z,3.04
2019-03-20T05:42:24.015Z,3.07
2019-03-20T05:45:14.577Z,3.11
2019-03-20T05:48:04.430Z,3.18
2019-03-20T05:50:54.078Z,3.24
2019-03-20T05:53:44.047Z,3.30
2019-03-20T05:56:33.560Z,3.40
2019-03-20T05:59:23.215Z,3.53
2019-03-20T06:02:13.492Z,3.69
2019-03-20T06:05:04.129Z,3.90
2019-03-20T06:07:54.295Z,4.09
2019-03-20T06:10:43.668Z,4.33
2019-03-20T06:13:33.113Z,4.59
2019-03-20T06:16:22.913Z,4.84
2019-03-20T06:19:12.608Z,5.10
2019-03-20T06:22:02.614Z,5.39
2019-03-20T06:24:52.406Z,5.69
2019-03-20T06:27:42.548Z,6.03
2019-03-20T06:30:33.764Z,6.37
2019-03-20T06:33:23.562Z,6.73
2019-03-20T06:36:13.551Z,7.06
2019-03-20T06:39:05.050Z,7.44
2019-03-20T06:41:54.824Z,7.93
2019-03-20T06:44:44.819Z,8.48
2019-03-20T06:47:34.611Z,9.08
2019-03-20T06:50:24.693Z,9.80
2019-03-20T06:53:14.517Z,10.46
2019-03-20T06:56:04.489Z,11.02
2019-03-20T06:59:50.560Z,11.33
2019-03-20T07:02:44.818Z,11.84
2019-03-20T07:06:43.686Z,12.34
2019-03-20T07:10:08.537Z,12.65
2019-03-20T07:12:58.662Z,13.02
2019-03-20T07:15:48.477Z,13.41
2019-03-20T07:18:38.479Z,14.22
2019-03-20T07:21:28.272Z,14.66
2019-03-20T07:24:18.207Z,15.12
2019-03-20T07:27:07.852Z,15.84
2019-03-20T07:29:57.999Z,16.63
2019-03-20T07:32:48.386Z,17.40
2019-03-20T07:35:37.874Z,17.93
2019-03-20T07:38:27.888Z,18.01
2019-03-20T07:41:17.646Z,18.01
2019-03-20T07:44:07.855Z,18.16
2019-03-20T07:46:58.068Z,18.19
2019-03-20T07:49:47.847Z,17.89
2019-03-20T07:52:37.612Z,17.61
2019-03-20T07:55:27.450Z,17.68
2019-03-20T07:58:16.938Z,17.82
2019-03-20T08:01:06.740Z,17.74
2019-03-20T08:04:06.082Z,17.43
2019-03-20T08:06:55.897Z,16.80
2019-03-20T08:09:45.716Z,16.12
2019-03-20T08:12:35.421Z,15.65
2019-03-20T08:15:25.576Z,15.18
2019-03-20T08:18:15.634Z,15.09
2019-03-20T08:21:05.611Z,14.80
2019-03-20T08:23:56.029Z,14.81
2019-03-20T08:26:45.707Z,15.36
2019-03-20T08:29:35.701Z,15.83
2019-03-20T08:32:25.673Z,16.12
2019-03-20T08:35:15.351Z,16.49
2019-03-20T08:38:04.856Z,16.71
2019-03-20T08:40:54.629Z,16.74
2019-03-20T08:43:45.674Z,16.38
2019-03-20T08:46:35.603Z,15.93
2019-03-20T08:49:25.702Z,15.73
2019-03-20T08:52:15.594Z,16.01
2019-03-20T08:55:06.885Z,16.42
2019-03-20T08:57:58.411Z,16.67
2019-03-20T09:00:48.837Z,16.61
2019-03-20T09:03:39.100Z,16.54
2019-03-20T09:06:28.922Z,16.37
2019-03-20T09:09:18.664Z,16.44
2019-03-20T09:12:08.756Z,16.34
2019-03-20T09:14:58.863Z,16.84
2019-03-20T09:17:49.505Z,17.13
2019-03-20T09:20:39.901Z,17.21
2019-03-20T09:23:29.805Z,17.01
2019-03-20T09:26:19.808Z,16.86
2019-03-20T09:29:18.237Z,16.91
2019-03-20T09:32:00.190Z,16.91
2019-03-20T09:34:50.294Z,17.40
2019-03-20T09:37:50.926Z,17.96
2019-03-20T09:40:31.989Z,18.74
2019-03-20T09:43:23.189Z,19.26
2019-03-20T09:46:12.355Z,19.54
2019-03-20T09:49:02.271Z,19.37
2019-03-20T09:51:52.480Z,19.16
2019-03-20T09:54:42.447Z,19.24
2019-03-20T09:57:32.509Z,19.26
2019-03-20T10:00:23.404Z,19.24
2019-03-20T10:03:13.110Z,19.09
2019-03-20T10:06:02.858Z,18.71
2019-03-20T10:08:54.311Z,18.61
2019-03-20T10:11:44.431Z,18.63
2019-03-20T10:14:34.524Z,18.93
2019-03-20T10:17:24.319Z,19.33
2019-03-20T10:20:16.058Z,19.80
2019-03-20T10:23:06.029Z,20.20
2019-03-20T10:25:55.792Z,20.25
2019-03-20T10:28:45.835Z,20.56
2019-03-20T10:31:35.953Z,21.24
2019-03-20T10:34:26.000Z,21.77
2019-03-20T10:37:15.717Z,22.44
2019-03-20T10:40:07.343Z,23.45
2019-03-20T10:42:59.018Z,24.29
2019-03-20T10:45:48.788Z,24.96
2019-03-20T10:48:38.647Z,25.59
2019-03-20T10:51:28.919Z,25.99
2019-03-20T10:54:19.867Z,26.42
2019-03-20T10:57:09.841Z,27.05
2019-03-20T10:59:59.600Z,27.69
2019-03-20T11:02:49.526Z,27.92
2019-03-20T11:05:39.488Z,28.13
2019-03-20T11:08:29.011Z,28.46
2019-03-20T11:11:27.068Z,28.70
2019-03-20T11:14:10.898Z,28.74
2019-03-20T11:17:01.008Z,28.70
2019-03-20T11:19:50.914Z,28.88
2019-03-20T11:22:41.111Z,29.06
2019-03-20T11:25:30.737Z,29.08
2019-03-20T11:28:20.714Z,29.18
2019-03-20T11:31:10.948Z,29.32
2019-03-20T11:34:00.777Z,29.30
2019-03-20T11:36:50.607Z,29.33
2019-03-20T11:39:40.501Z,29.22
2019-03-20T11:42:30.662Z,29.42
2019-03-20T11:45:20.488Z,29.52
2019-03-20T11:48:10.391Z,29.43
2019-03-20T11:51:00.578Z,29.53
2019-03-20T11:53:50.539Z,29.37
2019-03-20T11:56:40.543Z,29.43
2019-03-20T11:59:30.353Z,29.36
2019-03-20T12:02:28.189Z,29.41
2019-03-20T12:05:12.647Z,29.51
2019-03-20T12:08:03.042Z,29.38
2019-03-20T12:10:52.859Z,29.14
2019-03-20T12:13:42.856Z,28.60
2019-03-20T12:16:32.612Z,28.45
2019-03-20T12:19:22.492Z,28.44
2019-03-20T12:22:12.488Z,28.52
2019-03-20T12:25:02.300Z,28.68
2019-03-20T12:27:52.225Z,28.49
2019-03-20T12:30:42.384Z,28.42
2019-03-20T12:33:32.179Z,28.19
2019-03-20T12:36:21.457Z,27.82
2019-03-20T12:39:11.537Z,27.52
2019-03-20T12:42:01.419Z,27.20
2019-03-20T12:44:51.199Z,26.87
2019-03-20T12:47:42.392Z,26.56
2019-03-20T12:50:32.158Z,26.42
2019-03-20T12:53:23.319Z,26.42
2019-03-20T12:56:13.199Z,26.59
2019-03-20T12:59:03.065Z,26.52
2019-03-20T13:01:52.939Z,26.33
2019-03-20T13:04:42.650Z,26.21
2019-03-20T13:07:33.642Z,26.00
2019-03-20T13:10:24.266Z,25.87
2019-03-20T13:13:14.143Z,25.74
2019-03-20T13:16:04.080Z,25.69
2019-03-20T13:18:54.293Z,25.66
2019-03-20T13:21:44.573Z,25.49
2019-03-20T13:24:34.731Z,25.30
2019-03-20T13:27:24.792Z,24.89
2019-03-20T13:30:20.669Z,24.56
2019-03-20T13:33:10.521Z,24.12
2019-03-20T13:36:00.284Z,23.82
2019-03-20T13:38:50.401Z,23.58
2019-03-20T13:41:40.270Z,23.42
2019-03-20T13:44:29.909Z,23.16
2019-03-20T13:47:19.971Z,22.93
2019-03-20T13:50:11.241Z,22.30
2019-03-20T13:53:01.251Z,21.85
2019-03-20T13:55:51.252Z,21.51
2019-03-20T13:58:40.914Z,21.15
2019-03-20T14:01:30.696Z,20.86
2019-03-20T14:04:20.203Z,20.61
2019-03-20T14:07:09.773Z,20.35
2019-03-20T14:09:59.524Z,20.04
2019-03-20T14:12:49.489Z,19.87
2019-03-20T14:15:39.368Z,19.70
2019-03-20T14:18:29.109Z,19.60
2019-03-20T14:21:18.388Z,19.46
2019-03-20T14:24:07.703Z,19.38
2019-03-20T14:26:57.729Z,19.19
2019-03-20T14:29:47.310Z,19.09
2019-03-20T14:32:37.517Z,18.90
2019-03-20T14:35:27.648Z,18.84
2019-03-20T14:38:17.861Z,18.69
2019-03-20T14:41:07.874Z,18.67
2019-03-20T14:43:57.544Z,18.62
2019-03-20T14:46:47.325Z,18.65
2019-03-20T14:49:37.401Z,18.49
2019-03-20T14:52:26.414Z,18.44
2019-03-20T14:55:16.533Z,18.44
2019-03-20T14:58:06.738Z,18.30
2019-03-20T15:00:56.934Z,18.25
2019-03-20T15:03:48.746Z,18.25
2019-03-20T15:06:38.293Z,18.21
2019-03-20T15:09:28.287Z,18.21
2019-03-20T15:12:18.001Z,18.20
2019-03-20T15:15:23.335Z,18.18
2019-03-20T15:18:13.336Z,18.19
2019-03-20T15:21:07.658Z,18.13
2019-03-20T15:23:57.193Z,18.10
2019-03-20T15:26:47.077Z,18.06
2019-03-20T15:29:36.897Z,17.97
2019-03-20T15:32:26.988Z,17.96
2019-03-20T15:35:16.740Z,17.85
2019-03-20T15:38:06.867Z,17.79
2019-03-20T15:40:56.707Z,17.77
2019-03-20T15:43:46.804Z,17.71
2019-03-20T15:46:36.030Z,17.62
2019-03-20T15:49:25.439Z,17.55
2019-03-20T15:52:16.035Z,17.43
2019-03-20T15:55:09.716Z,17.35
2019-03-20T15:57:59.906Z,17.35
2019-03-20T16:00:49.537Z,17.35
2019-03-20T16:03:40.753Z,17.26
2019-03-20T16:06:30.585Z,17.19
2019-03-20T16:09:20.448Z,17.07
2019-03-20T16:12:10.583Z,16.96
2019-03-20T16:15:00.631Z,16.86
2019-03-20T16:17:50.261Z,16.80
2019-03-20T16:20:39.758Z,16.71
2019-03-20T16:23:30.013Z,16.61
2019-03-20T16:26:19.897Z,16.55
2019-03-20T16:29:09.879Z,16.50
2019-03-20T16:31:59.518Z,16.46
2019-03-20T16:34:49.429Z,16.44
2019-03-20T16:37:39.140Z,16.36
2019-03-20T16:40:29.036Z,16.28
2019-03-20T16:43:18.859Z,16.21
2019-03-20T16:46:09.077Z,16.14
2019-03-20T16:48:59.062Z,16.06
2019-03-20T16:51:49.031Z,16.00
2019-03-20T16:54:38.861Z,15.92
2019-03-20T16:57:29.153Z,15.91
2019-03-20T17:00:26.329Z,15.84
2019-03-20T17:03:15.477Z,15.71
2019-03-20T17:06:05.672Z,15.64
2019-03-20T17:08:56.283Z,15.58
2019-03-20T17:11:45.980Z,15.50
2019-03-20T17:14:35.915Z,15.39
2019-03-20T17:17:26.241Z,15.33
2019-03-20T17:20:17.114Z,15.27
2019-03-20T17:23:08.005Z,15.20
2019-03-20T17:25:57.631Z,15.07
2019-03-20T17:28:47.283Z,15.00
2019-03-20T17:31:37.196Z,14.93
2019-03-20T17:34:27.657Z,14.84
2019-03-20T17:37:17.484Z,14.76
2019-03-20T17:40:10.129Z,14.69
2019-03-20T17:43:00.037Z,14.60
2019-03-20T17:45:49.763Z,14.48
2019-03-20T17:48:39.629Z,14.41
2019-03-20T17:51:29.736Z,14.32
2019-03-20T17:54:19.115Z,14.24
2019-03-20T17:57:08.833Z,14.19
2019-03-20T17:59:57.922Z,14.09
2019-03-20T18:02:47.845Z,14.02
2019-03-20T18:05:38.300Z,13.92
2019-03-20T18:08:28.127Z,13.84
2019-03-20T18:11:18.071Z,13.76
2019-03-20T18:14:07.776Z,13.66
2019-03-20T18:16:57.815Z,13.56
2019-03-20T18:19:47.380Z,13.49
2019-03-20T18:22:36.983Z,13.42
2019-03-20T18:25:26.781Z,13.33
2019-03-20T18:28:17.211Z,13.23
2019-03-20T18:31:07.437Z,13.18
2019-03-20T18:33:57.552Z,13.18
2019-03-20T18:36:47.584Z,13.12
2019-03-20T18:39:37.755Z,13.08
2019-03-20T18:42:27.742Z,13.05
2019-03-20T18:45:19.017Z,13.01
2019-03-20T18:48:08.162Z,12.93
2019-03-20T18:50:57.694Z,12.85
2019-03-20T18:53:48.050Z,12.78
2019-03-20T18:56:37.950Z,12.70
2019-03-20T18:59:28.151Z,12.63
2019-03-20T19:02:18.457Z,12.54
2019-03-20T19:05:10.407Z,12.45
2019-03-20T19:08:00.104Z,12.40
2019-03-20T19:10:49.791Z,12.31
2019-03-20T19:13:39.264Z,12.22
2019-03-20T19:16:28.986Z,12.15
2019-03-20T19:19:19.121Z,12.04
2019-03-20T19:22:09.223Z,11.97
2019-03-20T19:24:59.831Z,11.89
2019-03-20T19:27:50.478Z,11.79
2019-03-20T19:30:40.160Z,11.70
2019-03-20T19:33:32.234Z,11.58
2019-03-20T19:36:22.714Z,11.50
2019-03-20T19:39:12.553Z,11.44
2019-03-20T19:42:02.440Z,11.35
2019-03-20T19:44:52.505Z,11.27
2019-03-20T19:47:42.666Z,11.21
2019-03-20T19:50:32.852Z,11.13
2019-03-20T19:53:22.744Z,11.08
2019-03-20T19:56:12.865Z,11.04
2019-03-20T19:59:02.787Z,10.94
2019-03-20T20:01:53.215Z,10.91
2019-03-20T20:04:42.417Z,10.83
2019-03-20T20:07:31.708Z,10.79
2019-03-20T20:10:21.339Z,10.72
2019-03-20T20:13:10.904Z,10.69
2019-03-20T20:16:00.298Z,10.67
2019-03-20T20:18:50.275Z,10.63
2019-03-20T20:21:40.054Z,10.61
2019-03-20T20:24:29.770Z,10.57
2019-03-20T20:27:19.635Z,10.56
2019-03-20T20:30:12.171Z,10.54
2019-03-20T20:33:01.808Z,10.50
2019-03-20T20:35:51.911Z,10.51
2019-03-20T20:38:41.275Z,10.51
2019-03-20T20:41:30.602Z,10.48
2019-03-20T20:44:20.443Z,10.47
2019-03-20T20:47:10.322Z,10.45
2019-03-20T20:50:00.445Z,10.46
2019-03-20T20:52:50.196Z,10.47
2019-03-20T20:55:39.906Z,10.47
2019-03-20T20:58:30.293Z,10.45
2019-03-20T21:01:20.154Z,10.42
2019-03-20T21:04:12.264Z,10.43
2019-03-20T21:07:01.866Z,10.40
2019-03-20T21:09:51.452Z,10.40
2019-03-20T21:12:42.834Z,10.40
2019-03-20T21:15:46.251Z,10.39
2019-03-20T21:19:33.362Z,10.37
2019-03-20T21:23:21.830Z,10.33
2019-03-20T21:26:12.370Z,10.21
2019-03-20T21:30:14.104Z,10.16
2019-03-20T21:33:05.895Z,10.09
2019-03-20T21:37:13.223Z,9.98
2019-03-20T21:40:04.292Z,9.95
2019-03-20T21:43:55.670Z,9.82
2019-03-20T21:47:35.906Z,9.76
2019-03-20T21:51:12.792Z,9.67
2019-03-20T21:55:01.651Z,9.58
2019-03-20T21:58:15.779Z,9.52
2019-03-20T22:02:01.199Z,9.48
2019-03-20T22:04:51.669Z,9.43
2019-03-20T22:07:42.254Z,9.35
2019-03-20T22:11:09.301Z,9.30
2019-03-20T22:14:08.335Z,9.28
2019-03-20T22:17:57.579Z,9.16
2019-03-20T22:21:35.654Z,9.12
2019-03-20T22:25:21.703Z,9.02
2019-03-20T22:28:57.734Z,8.94
2019-03-20T22:32:20.903Z,8.86
2019-03-20T22:35:37.768Z,8.86
2019-03-20T22:39:22.117Z,8.86
2019-03-20T22:42:29.707Z,8.84
2019-03-20T22:46:17.966Z,8.90
2019-03-20T22:49:52.018Z,8.95
2019-03-20T22:53:26.737Z,8.98
2019-03-20T22:56:51.111Z,9.03
2019-03-20T22:59:41.350Z,9.10
2019-03-20T23:02:52.873Z,9.18
2019-03-20T23:05:43.716Z,7.64
2019-03-20T23:08:34.792Z,9.29
2019-03-20T23:11:25.698Z,9.38
2019-03-20T23:14:16.222Z,9.47
2019-03-20T23:17:07.214Z,9.57
2019-03-20T23:19:58.635Z,9.68
2019-03-20T23:22:49.341Z,9.74
2019-03-20T23:25:40.459Z,9.83
2019-03-20T23:28:31.244Z,9.90
2019-03-20T23:31:22.544Z,9.94
2019-03-20T23:34:14.342Z,10.00
2019-03-20T23:37:04.999Z,10.05
2019-03-20T23:39:55.786Z,10.11
2019-03-20T23:42:47.268Z,10.16
2019-03-20T23:45:38.052Z,10.21
2019-03-20T23:48:46.829Z,10.28
2019-03-20T23:51:37.558Z,10.33
2019-03-20T23:54:45.122Z,10.37
2019-03-20T23:57:35.704Z,10.39
